createdAt,value
2018-07-08T00:00:46.296Z,13.42
2018-07-08T00:01:45.908Z,13.42
2018-07-08T00:03:29.607Z,13.38
2018-07-08T00:04:51.632Z,13.39
2018-07-08T00:05:52.323Z,13.39
2018-07-08T00:06:51.877Z,13.39
2018-07-08T00:07:52.446Z,13.33
2018-07-08T00:08:52.207Z,13.31
2018-07-08T00:09:51.641Z,13.30
2018-07-08T00:10:52.269Z,13.30
2018-07-08T00:11:51.980Z,13.35
2018-07-08T00:12:51.634Z,13.28
2018-07-08T00:13:52.106Z,13.25
2018-07-08T00:14:51.627Z,13.23
2018-07-08T00:15:52.319Z,13.23
2018-07-08T00:16:51.980Z,13.25
2018-07-08T00:17:52.704Z,13.23
2018-07-08T00:18:52.404Z,13.23
2018-07-08T00:19:51.870Z,13.22
2018-07-08T00:20:51.410Z,13.18
2018-07-08T00:21:52.102Z,13.12
2018-07-08T00:22:53.108Z,13.11
2018-07-08T00:23:51.959Z,13.09
2018-07-08T00:24:51.720Z,13.08
2018-07-08T00:25:52.233Z,13.05
2018-07-08T00:27:13.287Z,13.04
2018-07-08T00:28:35.258Z,12.98
2018-07-08T00:29:35.656Z,12.98
2018-07-08T00:31:39.448Z,12.95
2018-07-08T00:32:39.892Z,12.93
2018-07-08T00:33:40.344Z,12.87
2018-07-08T00:34:39.865Z,12.86
2018-07-08T00:35:40.410Z,12.86
2018-07-08T00:36:40.078Z,12.87
2018-07-08T00:37:39.643Z,12.86
2018-07-08T00:38:40.447Z,12.82
2018-07-08T00:39:40.272Z,12.80
2018-07-08T00:40:39.952Z,12.76
2018-07-08T00:41:40.318Z,12.76
2018-07-08T00:42:40.293Z,12.78
2018-07-08T00:43:39.952Z,12.79
2018-07-08T00:44:40.433Z,12.76
2018-07-08T00:45:39.928Z,12.72
2018-07-08T00:46:39.860Z,12.72
2018-07-08T00:47:39.645Z,12.72
2018-07-08T00:48:40.026Z,12.67
2018-07-08T00:50:03.060Z,12.64
2018-07-08T00:51:03.839Z,12.62
2018-07-08T00:52:03.392Z,12.64
2018-07-08T00:53:03.949Z,12.61
2018-07-08T00:54:03.554Z,12.61
2018-07-08T00:55:03.952Z,12.57
2018-07-08T00:56:03.267Z,12.54
2018-07-08T00:57:03.911Z,12.53
2018-07-08T00:58:03.534Z,12.50
2018-07-08T00:59:03.093Z,12.50
2018-07-08T01:00:03.805Z,12.50
2018-07-08T01:01:03.581Z,12.49
2018-07-08T01:02:03.264Z,12.47
2018-07-08T01:03:03.883Z,12.45
2018-07-08T01:04:03.247Z,12.50
2018-07-08T01:05:04.125Z,12.53
2018-07-08T01:06:24.939Z,12.54
2018-07-08T01:07:25.330Z,12.61
2018-07-08T01:08:25.023Z,12.61
2018-07-08T01:09:25.518Z,12.55
2018-07-08T01:10:25.135Z,12.49
2018-07-08T01:11:25.716Z,12.46
2018-07-08T01:12:46.569Z,12.42
2018-07-08T01:13:46.957Z,12.40
2018-07-08T01:14:46.932Z,12.36
2018-07-08T01:15:48.146Z,12.40
2018-07-08T01:16:46.582Z,12.40
2018-07-08T01:17:47.357Z,12.36
2018-07-08T01:18:46.881Z,12.36
2018-07-08T01:20:08.089Z,12.35
2018-07-08T01:21:08.917Z,12.32
2018-07-08T01:22:08.912Z,12.31
2018-07-08T01:23:09.212Z,12.29
2018-07-08T01:24:07.867Z,12.28
2018-07-08T01:25:53.344Z,12.29
2018-07-08T01:26:54.070Z,12.28
2018-07-08T01:27:53.618Z,12.25
2018-07-08T01:28:54.028Z,12.25
2018-07-08T01:29:53.721Z,12.28
2018-07-08T01:30:53.447Z,12.25
2018-07-08T01:31:54.075Z,12.21
2018-07-08T01:32:53.652Z,12.20
2018-07-08T01:33:54.262Z,12.15
2018-07-08T01:34:53.997Z,12.17
2018-07-08T01:35:53.652Z,12.17
2018-07-08T01:36:53.253Z,12.15
2018-07-08T01:37:53.740Z,12.13
2018-07-08T01:38:53.450Z,12.10
2018-07-08T01:39:53.975Z,12.10
2018-07-08T01:40:53.598Z,12.09
2018-07-08T01:43:23.680Z,12.07
2018-07-08T01:44:24.051Z,12.09
2018-07-08T01:45:24.641Z,12.07
2018-07-08T01:46:24.166Z,12.07
2018-07-08T01:47:24.768Z,12.09
2018-07-08T01:48:24.404Z,12.06
2018-07-08T01:50:06.418Z,11.97
2018-07-08T01:51:06.944Z,11.95
2018-07-08T01:52:27.629Z,11.94
2018-07-08T01:53:28.286Z,11.95
2018-07-08T01:55:10.743Z,11.95
2018-07-08T01:56:11.293Z,11.87
2018-07-08T01:57:10.878Z,11.90
2018-07-08T01:58:11.191Z,11.91
2018-07-08T01:59:10.735Z,11.88
2018-07-08T02:00:11.312Z,11.97
2018-07-08T02:01:32.245Z,11.97
2018-07-08T02:02:32.786Z,11.95
2018-07-08T02:03:33.081Z,11.90
2018-07-08T02:04:54.232Z,11.87
2018-07-08T02:06:37.383Z,11.84
2018-07-08T02:07:37.670Z,11.81
2018-07-08T02:08:38.272Z,11.83
2018-07-08T02:09:59.739Z,11.84
2018-07-08T02:11:00.108Z,11.88
2018-07-08T02:11:59.520Z,11.91
2018-07-08T02:13:21.205Z,11.86
2018-07-08T02:14:43.103Z,11.81
2018-07-08T02:15:43.478Z,11.83
2018-07-08T02:16:43.143Z,11.81
2018-07-08T02:17:43.556Z,11.81
2018-07-08T02:18:43.026Z,11.77
2018-07-08T02:20:04.668Z,11.73
2018-07-08T02:21:05.453Z,11.72
2018-07-08T02:22:06.078Z,11.73
2018-07-08T02:23:04.350Z,11.75
2018-07-08T02:24:04.950Z,11.70
2018-07-08T02:25:04.611Z,11.63
2018-07-08T02:26:04.946Z,11.55
2018-07-08T02:27:04.379Z,11.55
2018-07-08T02:28:05.238Z,11.52
2018-07-08T02:29:04.947Z,11.51
2018-07-08T02:30:05.496Z,11.51
2018-07-08T02:31:05.230Z,11.48
2018-07-08T02:32:04.770Z,11.44
2018-07-08T02:33:05.132Z,11.37
2018-07-08T02:34:04.833Z,11.32
2018-07-08T02:35:04.367Z,11.30
2018-07-08T02:36:04.934Z,11.30
2018-07-08T02:37:05.270Z,11.29
2018-07-08T02:38:04.698Z,11.29
2018-07-08T02:39:28.469Z,11.26
2018-07-08T02:40:29.049Z,11.27
2018-07-08T02:41:50.562Z,11.26
2018-07-08T02:42:50.044Z,11.23
2018-07-08T02:43:50.712Z,11.17
2018-07-08T02:44:50.067Z,11.12
2018-07-08T02:45:50.742Z,11.11
2018-07-08T02:46:50.517Z,11.11
2018-07-08T02:48:11.276Z,11.11
2018-07-08T02:49:11.644Z,11.12
2018-07-08T02:50:12.004Z,11.11
2018-07-08T02:51:11.521Z,11.08
2018-07-08T02:52:33.346Z,11.07
2018-07-08T02:53:39.720Z,11.10
2018-07-08T02:54:40.290Z,11.08
2018-07-08T02:55:34.691Z,11.12
2018-07-08T02:56:35.509Z,11.12
2018-07-08T02:57:34.974Z,11.11
2018-07-08T02:58:34.871Z,11.10
2018-07-08T02:59:34.983Z,11.10
2018-07-08T03:00:34.940Z,11.08
2018-07-08T03:01:35.670Z,11.07
2018-07-08T03:02:35.217Z,11.05
2018-07-08T03:03:35.262Z,11.07
2018-07-08T03:04:36.415Z,11.05
2018-07-08T03:05:35.835Z,11.07
2018-07-08T03:06:34.821Z,11.00
2018-07-08T03:07:59.505Z,11.00
2018-07-08T03:09:01.682Z,10.99
2018-07-08T03:10:00.300Z,10.96
2018-07-08T03:11:00.231Z,10.89
2018-07-08T03:12:00.033Z,10.86
2018-07-08T03:13:00.671Z,10.82
2018-07-08T03:14:00.029Z,10.75
2018-07-08T03:15:00.794Z,10.68
2018-07-08T03:16:00.698Z,10.71
2018-07-08T03:17:00.721Z,10.72
2018-07-08T03:18:01.350Z,10.75
2018-07-08T03:19:02.175Z,10.76
2018-07-08T03:19:59.793Z,10.78
2018-07-08T03:21:00.588Z,10.79
2018-07-08T03:22:00.284Z,10.84
2018-07-08T03:22:59.791Z,10.89
2018-07-08T03:24:00.176Z,10.87
2018-07-08T03:25:22.186Z,10.90
2018-07-08T03:26:22.239Z,10.97
2018-07-08T03:27:45.187Z,10.99
2018-07-08T03:28:46.161Z,10.90
2018-07-08T03:29:45.970Z,10.79
2018-07-08T03:30:46.905Z,10.67
2018-07-08T03:31:46.210Z,10.59
2018-07-08T03:32:45.060Z,10.56
2018-07-08T03:34:07.158Z,10.57
2018-07-08T03:35:07.256Z,10.56
2018-07-08T03:36:28.755Z,10.57
2018-07-08T03:37:51.815Z,10.63
2018-07-08T03:38:53.669Z,10.69
2018-07-08T03:39:52.012Z,10.74
2018-07-08T03:40:51.875Z,10.72
2018-07-08T03:41:51.864Z,10.74
2018-07-08T03:42:52.161Z,10.74
2018-07-08T03:44:37.801Z,10.71
2018-07-08T03:45:38.839Z,10.67
2018-07-08T03:46:37.676Z,10.69
2018-07-08T03:47:38.751Z,10.69
2018-07-08T03:48:38.035Z,10.68
2018-07-08T03:49:38.808Z,10.69
2018-07-08T03:50:38.971Z,10.71
2018-07-08T03:51:38.952Z,10.74
2018-07-08T03:52:38.354Z,10.72
2018-07-08T03:53:39.232Z,10.76
2018-07-08T03:54:38.983Z,10.84
2018-07-08T03:55:38.629Z,10.84
2018-07-08T03:56:39.491Z,10.87
2018-07-08T03:57:39.763Z,10.92
2018-07-08T03:58:39.441Z,10.90
2018-07-08T03:59:39.246Z,10.89
2018-07-08T04:00:39.471Z,10.84
2018-07-08T04:01:38.806Z,10.82
2018-07-08T04:02:38.042Z,10.81
2018-07-08T04:03:39.272Z,10.81
2018-07-08T04:04:39.039Z,10.81
2018-07-08T04:06:00.964Z,10.84
2018-07-08T04:07:01.532Z,10.89
2018-07-08T04:08:22.371Z,10.90
2018-07-08T04:09:22.272Z,10.93
2018-07-08T04:10:21.978Z,10.92
2018-07-08T04:11:24.036Z,10.93
2018-07-08T04:12:22.971Z,10.93
2018-07-08T04:13:22.853Z,10.93
2018-07-08T04:14:23.114Z,10.93
2018-07-08T04:15:43.960Z,10.96
2018-07-08T04:17:06.012Z,10.99
2018-07-08T04:18:28.224Z,11.00
2018-07-08T04:19:28.964Z,11.02
2018-07-08T04:20:28.605Z,11.02
2018-07-08T04:21:35.337Z,11.05
2018-07-08T04:22:28.856Z,11.08
2018-07-08T04:23:28.704Z,11.14
2018-07-08T04:24:28.382Z,11.15
2018-07-08T04:25:27.957Z,11.19
2018-07-08T04:26:28.608Z,11.22
2018-07-08T04:27:28.260Z,11.26
2018-07-08T04:28:28.926Z,11.30
2018-07-08T04:29:28.610Z,11.32
2018-07-08T04:30:49.862Z,11.33
2018-07-08T04:31:50.579Z,11.37
2018-07-08T04:32:49.969Z,11.51
2018-07-08T04:33:50.446Z,11.57
2018-07-08T04:34:49.977Z,11.60
2018-07-08T04:35:50.496Z,11.63
2018-07-08T04:36:50.318Z,11.66
2018-07-08T04:37:49.791Z,11.69
2018-07-08T04:38:50.389Z,11.73
2018-07-08T04:39:49.788Z,11.73
2018-07-08T04:40:50.273Z,11.75
2018-07-08T04:41:49.944Z,11.78
2018-07-08T04:42:50.389Z,11.81
2018-07-08T04:43:49.993Z,11.84
2018-07-08T04:44:50.573Z,11.88
2018-07-08T04:45:50.228Z,11.94
2018-07-08T04:46:49.627Z,11.95
2018-07-08T04:47:50.178Z,12.02
2018-07-08T04:48:49.773Z,12.09
2018-07-08T04:49:50.308Z,12.13
2018-07-08T04:50:49.944Z,12.20
2018-07-08T04:51:51.119Z,12.20
2018-07-08T04:52:49.725Z,12.22
2018-07-08T04:53:50.475Z,12.27
2018-07-08T04:54:50.130Z,12.32
2018-07-08T04:55:50.739Z,12.37
2018-07-08T04:56:50.618Z,12.42
2018-07-08T04:57:50.439Z,12.46
2018-07-08T04:58:49.992Z,12.49
2018-07-08T04:59:50.758Z,12.55
2018-07-08T05:00:50.487Z,12.55
2018-07-08T05:02:11.415Z,12.64
2018-07-08T05:03:12.040Z,12.67
2018-07-08T05:04:11.424Z,12.67
2018-07-08T05:05:33.297Z,12.68
2018-07-08T05:06:34.137Z,12.72
2018-07-08T05:07:33.692Z,12.79
2018-07-08T05:08:33.193Z,12.86
2018-07-08T05:09:33.483Z,12.94
2018-07-08T05:10:34.008Z,13.00
2018-07-08T05:11:54.911Z,13.08
2018-07-08T05:12:55.648Z,13.16
2018-07-08T05:13:55.216Z,13.23
2018-07-08T05:14:54.737Z,13.35
2018-07-08T05:16:16.380Z,13.42
2018-07-08T05:17:38.237Z,13.53
2018-07-08T05:18:38.876Z,13.59
2018-07-08T05:19:38.398Z,13.68
2018-07-08T05:21:00.551Z,13.75
2018-07-08T05:22:01.279Z,13.83
2018-07-08T05:23:00.790Z,13.93
2018-07-08T05:24:01.160Z,14.00
2018-07-08T05:25:00.492Z,14.00
2018-07-08T05:26:01.281Z,14.10
2018-07-08T05:27:00.808Z,14.17
2018-07-08T05:28:01.423Z,14.25
2018-07-08T05:29:21.974Z,14.30
2018-07-08T05:30:22.836Z,14.35
2018-07-08T05:31:22.282Z,14.41
2018-07-08T05:32:22.903Z,14.45
2018-07-08T05:33:43.743Z,14.53
2018-07-08T05:34:44.285Z,14.59
2018-07-08T05:36:05.441Z,14.70
2018-07-08T05:37:06.274Z,14.82
2018-07-08T05:38:05.862Z,14.85
2018-07-08T05:39:05.360Z,14.84
2018-07-08T05:40:06.009Z,14.91
2018-07-08T05:41:05.689Z,15.00
2018-07-08T05:42:06.290Z,15.07
2018-07-08T05:43:05.911Z,15.18
2018-07-08T05:44:05.587Z,15.24
2018-07-08T05:45:05.378Z,15.27
2018-07-08T05:46:06.004Z,15.29
2018-07-08T05:47:05.684Z,15.42
2018-07-08T05:48:05.422Z,15.55
2018-07-08T05:49:29.419Z,15.68
2018-07-08T05:50:30.147Z,15.82
2018-07-08T05:51:30.845Z,15.95
2018-07-08T05:52:29.278Z,16.08
2018-07-08T05:53:29.809Z,16.20
2018-07-08T05:54:29.420Z,16.33
2018-07-08T05:55:29.850Z,16.43
2018-07-08T05:56:29.317Z,16.58
2018-07-08T05:57:29.926Z,16.69
2018-07-08T05:58:29.314Z,16.83
2018-07-08T05:59:29.763Z,16.86
2018-07-08T06:00:30.264Z,16.89
2018-07-08T06:02:12.955Z,17.06
2018-07-08T06:03:13.536Z,17.22
2018-07-08T06:04:13.021Z,17.31
2018-07-08T06:05:13.731Z,17.42
2018-07-08T06:06:35.046Z,17.54
2018-07-08T06:07:36.039Z,17.68
2018-07-08T06:08:35.492Z,17.86
2018-07-08T06:09:35.134Z,17.95
2018-07-08T06:10:35.606Z,18.01
2018-07-08T06:11:56.485Z,18.03
2018-07-08T06:13:18.753Z,18.13
2018-07-08T06:14:19.359Z,18.29
2018-07-08T06:15:42.368Z,18.45
2018-07-08T06:16:42.769Z,18.50
2018-07-08T06:17:42.309Z,18.60
2018-07-08T06:19:04.629Z,18.66
2018-07-08T06:20:05.565Z,18.66
2018-07-08T06:21:05.306Z,18.73
2018-07-08T06:22:04.779Z,18.77
2018-07-08T06:23:05.532Z,18.93
2018-07-08T06:24:05.216Z,19.04
2018-07-08T06:25:29.396Z,19.26
2018-07-08T06:26:29.979Z,19.48
2018-07-08T06:27:51.308Z,19.67
2018-07-08T06:28:52.103Z,19.67
2018-07-08T06:29:51.483Z,19.76
2018-07-08T06:31:13.431Z,19.81
2018-07-08T06:32:14.089Z,19.69
2018-07-08T06:33:13.736Z,19.59
2018-07-08T06:34:14.337Z,19.47
2018-07-08T06:35:35.372Z,19.14
2018-07-08T06:36:35.846Z,18.92
2018-07-08T06:37:35.402Z,18.92
2018-07-08T06:38:35.895Z,19.08
2018-07-08T06:39:42.627Z,19.14
2018-07-08T06:40:35.359Z,19.41
2018-07-08T06:41:35.980Z,19.73
2018-07-08T06:42:36.062Z,20.02
2018-07-08T06:43:36.501Z,20.32
2018-07-08T06:44:58.466Z,20.44
2018-07-08T06:45:58.234Z,20.48
2018-07-08T06:46:58.855Z,20.78
2018-07-08T06:47:58.542Z,20.74
2018-07-08T06:49:40.806Z,20.43
2018-07-08T06:50:41.578Z,20.10
2018-07-08T06:52:03.264Z,20.22
2018-07-08T06:53:03.193Z,20.22
2018-07-08T06:54:29.178Z,19.74
2018-07-08T06:55:29.995Z,19.44
2018-07-08T06:56:29.490Z,19.27
2018-07-08T06:57:29.519Z,19.14
2018-07-08T06:58:29.130Z,18.89
2018-07-08T06:59:51.864Z,18.68
2018-07-08T07:00:52.405Z,18.66
2018-07-08T07:01:51.934Z,18.70
2018-07-08T07:02:52.944Z,18.98
2018-07-08T07:03:52.712Z,19.39
2018-07-08T07:04:52.632Z,19.81
2018-07-08T07:05:51.969Z,20.16
2018-07-08T07:06:53.584Z,20.39
2018-07-08T07:07:52.513Z,20.62
2018-07-08T07:08:52.881Z,20.85
2018-07-08T07:09:52.562Z,21.07
2018-07-08T07:10:52.256Z,21.45
2018-07-08T07:12:13.876Z,21.87
2018-07-08T07:13:36.330Z,21.98
2018-07-08T07:14:36.057Z,22.29
2018-07-08T07:15:36.676Z,22.63
2018-07-08T07:16:36.228Z,22.85
2018-07-08T07:17:37.173Z,22.90
2018-07-08T07:18:36.969Z,22.88
2018-07-08T07:19:36.842Z,22.94
2018-07-08T07:20:36.679Z,23.06
2018-07-08T07:21:36.190Z,23.18
2018-07-08T07:22:36.595Z,23.31
2018-07-08T07:23:36.297Z,23.28
2018-07-08T07:24:36.961Z,23.39
2018-07-08T07:25:37.736Z,23.47
2018-07-08T07:26:36.127Z,23.54
2018-07-08T07:27:57.389Z,23.43
2018-07-08T07:28:58.826Z,23.55
2018-07-08T07:29:57.323Z,23.69
2018-07-08T07:30:58.864Z,23.81
2018-07-08T07:31:57.437Z,23.99
2018-07-08T07:32:58.266Z,24.17
2018-07-08T07:34:20.511Z,24.23
2018-07-08T07:35:42.742Z,24.13
2018-07-08T07:36:44.410Z,24.28
2018-07-08T07:37:43.131Z,24.45
2018-07-08T07:38:42.783Z,24.57
2018-07-08T07:40:04.565Z,24.84
2018-07-08T07:41:05.152Z,24.96
2018-07-08T07:42:04.904Z,24.99
2018-07-08T07:43:05.775Z,24.76
2018-07-08T07:44:05.456Z,24.60
2018-07-08T07:45:05.214Z,24.68
2018-07-08T07:46:04.987Z,24.85
2018-07-08T07:47:04.738Z,24.93
2018-07-08T07:48:05.590Z,24.95
2018-07-08T07:49:26.516Z,24.98
2018-07-08T07:50:27.374Z,25.18
2018-07-08T07:51:27.033Z,25.23
2018-07-08T07:52:26.569Z,25.40
2018-07-08T07:53:27.403Z,25.47
2018-07-08T07:54:27.294Z,25.38
2018-07-08T07:55:26.825Z,25.26
2018-07-08T07:56:27.504Z,25.17
2018-07-08T07:57:50.801Z,25.29
2018-07-08T07:58:51.325Z,25.29
2018-07-08T07:59:50.889Z,25.33
2018-07-08T08:00:51.517Z,25.28
2018-07-08T08:01:50.967Z,25.26
2018-07-08T08:02:51.438Z,25.40
2018-07-08T08:03:50.965Z,25.55
2018-07-08T08:04:51.747Z,25.59
2018-07-08T08:05:51.690Z,25.63
2018-07-08T08:06:51.307Z,25.66
2018-07-08T08:07:50.908Z,25.85
2018-07-08T08:08:53.316Z,25.95
2018-07-08T08:09:51.958Z,25.75
2018-07-08T08:10:51.394Z,25.78
2018-07-08T08:11:51.227Z,25.87
2018-07-08T08:12:51.517Z,25.99
2018-07-08T08:13:51.027Z,26.13
2018-07-08T08:14:50.865Z,26.03
2018-07-08T08:15:50.588Z,26.18
2018-07-08T08:16:51.462Z,26.26
2018-07-08T08:17:51.197Z,26.43
2018-07-08T08:18:50.948Z,26.58
2018-07-08T08:19:51.506Z,26.59
2018-07-08T08:20:51.174Z,26.70
2018-07-08T08:21:50.938Z,26.75
2018-07-08T08:22:50.638Z,26.73
2018-07-08T08:23:51.926Z,26.74
2018-07-08T08:24:50.530Z,26.77
2018-07-08T08:25:51.606Z,27.00
2018-07-08T08:26:51.583Z,27.17
2018-07-08T08:28:34.658Z,27.35
2018-07-08T08:29:35.424Z,27.32
2018-07-08T08:30:34.985Z,27.36
2018-07-08T08:31:57.743Z,27.64
2018-07-08T08:32:58.480Z,27.64
2018-07-08T08:33:57.963Z,27.75
2018-07-08T08:34:57.607Z,27.80
2018-07-08T08:35:58.295Z,27.85
2018-07-08T08:36:58.028Z,27.71
2018-07-08T08:37:57.686Z,27.55
2018-07-08T08:38:58.263Z,27.48
2018-07-08T08:39:58.056Z,27.47
2018-07-08T08:40:58.088Z,27.54
2018-07-08T08:41:58.604Z,27.58
2018-07-08T08:42:58.112Z,27.44
2018-07-08T08:43:57.812Z,27.30
2018-07-08T08:44:58.376Z,27.33
2018-07-08T08:45:58.250Z,27.67
2018-07-08T08:46:58.105Z,28.11
2018-07-08T08:47:57.923Z,28.23
2018-07-08T08:48:57.649Z,28.07
2018-07-08T08:49:58.295Z,27.67
2018-07-08T08:50:58.809Z,27.70
2018-07-08T08:51:58.362Z,27.75
2018-07-08T08:52:58.670Z,27.75
2018-07-08T08:53:58.472Z,28.07
2018-07-08T08:54:58.335Z,28.22
2018-07-08T08:55:57.859Z,28.41
2018-07-08T08:56:57.611Z,28.51
2018-07-08T08:57:58.098Z,28.67
2018-07-08T08:58:57.900Z,28.91
2018-07-08T08:59:59.277Z,29.05
2018-07-08T09:01:01.509Z,29.12
2018-07-08T09:01:58.340Z,29.16
2018-07-08T09:02:58.277Z,29.32
2018-07-08T09:03:57.680Z,29.32
2018-07-08T09:04:59.504Z,29.47
2018-07-08T09:05:58.302Z,29.23
2018-07-08T09:06:57.973Z,29.13
2018-07-08T09:07:57.775Z,29.22
2018-07-08T09:08:58.589Z,29.23
2018-07-08T09:09:58.385Z,28.74
2018-07-08T09:10:58.249Z,28.75
2018-07-08T09:11:57.923Z,28.79
2018-07-08T09:12:57.719Z,28.75
2018-07-08T09:13:58.577Z,28.93
2018-07-08T09:14:58.789Z,29.02
2018-07-08T09:15:58.633Z,28.86
2018-07-08T09:16:58.474Z,29.01
2018-07-08T09:17:58.522Z,29.04
2018-07-08T09:18:58.302Z,28.88
2018-07-08T09:19:58.131Z,29.08
2018-07-08T09:20:58.214Z,29.41
2018-07-08T09:21:58.033Z,29.78
2018-07-08T09:22:58.030Z,30.09
2018-07-08T09:23:58.053Z,30.18
2018-07-08T09:24:58.918Z,29.94
2018-07-08T09:26:21.211Z,30.03
2018-07-08T09:27:22.089Z,30.25
2018-07-08T09:28:20.976Z,30.23
2018-07-08T09:29:20.956Z,30.30
2018-07-08T09:30:20.731Z,30.21
2018-07-08T09:31:21.237Z,30.24
2018-07-08T09:33:04.312Z,30.40
2018-07-08T09:34:05.063Z,30.63
2018-07-08T09:35:04.803Z,30.48
2018-07-08T09:36:04.709Z,30.50
2018-07-08T09:37:25.935Z,30.37
2018-07-08T09:38:26.842Z,30.69
2018-07-08T09:39:26.753Z,31.00
2018-07-08T09:40:26.635Z,31.22
2018-07-08T09:41:27.027Z,31.42
2018-07-08T09:42:27.776Z,31.33
2018-07-08T09:44:09.224Z,30.62
2018-07-08T09:45:09.888Z,30.80
2018-07-08T09:46:09.569Z,30.73
2018-07-08T09:47:32.088Z,30.83
2018-07-08T09:48:33.579Z,30.99
2018-07-08T09:50:16.089Z,31.12
2018-07-08T09:52:00.104Z,30.90
2018-07-08T09:53:00.880Z,31.05
2018-07-08T09:54:00.678Z,31.18
2018-07-08T09:55:00.470Z,31.64
2018-07-08T09:56:22.257Z,31.52
2018-07-08T09:57:22.745Z,31.12
2018-07-08T09:58:22.352Z,30.97
2018-07-08T09:59:22.765Z,31.22
2018-07-08T10:00:22.762Z,31.65
2018-07-08T10:01:22.511Z,31.54
2018-07-08T10:02:22.117Z,31.70
2018-07-08T10:03:22.815Z,32.07
2018-07-08T10:04:22.532Z,32.29
2018-07-08T10:05:22.322Z,32.43
2018-07-08T10:06:21.945Z,32.80
2018-07-08T10:07:22.886Z,33.02
2018-07-08T10:08:44.073Z,32.63
2018-07-08T10:09:44.195Z,32.80
2018-07-08T10:10:43.654Z,32.80
2018-07-08T10:11:44.384Z,32.78
2018-07-08T10:12:44.452Z,32.89
2018-07-08T10:13:44.773Z,33.01
2018-07-08T10:14:44.313Z,33.01
2018-07-08T10:16:05.886Z,33.20
2018-07-08T10:17:05.432Z,33.36
2018-07-08T10:18:06.350Z,33.42
2018-07-08T10:19:06.466Z,32.73
2018-07-08T10:20:06.431Z,32.75
2018-07-08T10:21:07.253Z,32.67
2018-07-08T10:22:05.784Z,32.64
2018-07-08T10:23:05.465Z,32.38
2018-07-08T10:24:06.289Z,32.37
2018-07-08T10:25:06.200Z,32.38
2018-07-08T10:26:05.910Z,32.27
2018-07-08T10:27:05.625Z,31.81
2018-07-08T10:28:05.325Z,31.99
2018-07-08T10:29:28.565Z,32.43
2018-07-08T10:30:28.507Z,32.56
2018-07-08T10:31:28.246Z,32.77
2018-07-08T10:32:27.683Z,32.30
2018-07-08T10:33:28.632Z,32.00
2018-07-08T10:34:28.645Z,31.92
2018-07-08T10:35:29.122Z,31.81
2018-07-08T10:37:11.974Z,31.70
2018-07-08T10:38:11.640Z,31.81
2018-07-08T10:39:11.417Z,32.08
2018-07-08T10:40:33.766Z,32.12
2018-07-08T10:41:35.454Z,32.37
2018-07-08T10:42:34.027Z,32.75
2018-07-08T10:43:34.025Z,32.55
2018-07-08T10:44:33.715Z,32.71
2018-07-08T10:45:34.339Z,32.92
2018-07-08T10:46:33.839Z,32.83
2018-07-08T10:47:34.738Z,32.83
2018-07-08T10:48:34.486Z,33.05
2018-07-08T10:49:34.163Z,33.43
2018-07-08T10:50:55.504Z,33.59
2018-07-08T10:51:56.186Z,33.04
2018-07-08T10:52:55.890Z,33.02
2018-07-08T10:53:55.648Z,33.22
2018-07-08T10:54:55.384Z,33.58
2018-07-08T10:55:56.082Z,33.89
2018-07-08T10:57:17.360Z,34.01
2018-07-08T10:58:19.063Z,33.74
2018-07-08T10:59:17.790Z,33.81
2018-07-08T11:00:17.621Z,33.95
2018-07-08T11:01:20.105Z,34.24
2018-07-08T11:02:17.667Z,34.08
2018-07-08T11:03:17.547Z,33.99
2018-07-08T11:04:18.181Z,34.02
2018-07-08T11:05:17.989Z,34.08
2018-07-08T11:06:17.632Z,34.17
2018-07-08T11:07:18.349Z,33.74
2018-07-08T11:08:18.632Z,33.87
2018-07-08T11:09:18.194Z,34.10
2018-07-08T11:10:19.117Z,34.27
2018-07-08T11:11:17.998Z,33.94
2018-07-08T11:12:17.957Z,33.73
2018-07-08T11:13:18.469Z,33.76
2018-07-08T11:14:18.012Z,33.89
2018-07-08T11:15:17.972Z,34.17
2018-07-08T11:16:17.978Z,34.50
2018-07-08T11:17:18.841Z,34.70
2018-07-08T11:18:17.731Z,34.86
2018-07-08T11:19:18.480Z,34.80
2018-07-08T11:20:18.413Z,34.39
2018-07-08T11:21:18.865Z,34.27
2018-07-08T11:22:39.391Z,34.38
2018-07-08T11:24:02.161Z,34.67
2018-07-08T11:25:02.897Z,34.85
2018-07-08T11:26:03.486Z,35.11
2018-07-08T11:27:03.011Z,34.97
2018-07-08T11:28:02.932Z,34.74
2018-07-08T11:29:02.820Z,34.51
2018-07-08T11:30:02.824Z,34.58
2018-07-08T11:31:02.620Z,34.90
2018-07-08T11:32:02.292Z,35.04
2018-07-08T11:33:02.283Z,35.10
2018-07-08T11:34:01.947Z,35.12
2018-07-08T11:35:02.860Z,34.73
2018-07-08T11:36:02.656Z,34.92
2018-07-08T11:37:23.991Z,34.99
2018-07-08T11:38:47.061Z,34.90
2018-07-08T11:39:47.660Z,34.99
2018-07-08T11:40:47.642Z,35.18
2018-07-08T11:41:47.391Z,35.29
2018-07-08T11:42:47.028Z,35.14
2018-07-08T11:43:48.000Z,35.39
2018-07-08T11:44:47.990Z,35.51
2018-07-08T11:45:48.641Z,35.46
2018-07-08T11:46:47.313Z,35.44
2018-07-08T11:48:08.335Z,35.24
2018-07-08T11:49:09.095Z,35.34
2018-07-08T11:50:08.843Z,35.37
2018-07-08T11:51:08.815Z,35.49
2018-07-08T11:52:09.011Z,35.60
2018-07-08T11:53:09.376Z,35.61
2018-07-08T11:54:31.989Z,35.67
2018-07-08T11:55:31.989Z,35.85
2018-07-08T11:56:32.016Z,35.49
2018-07-08T11:57:31.722Z,35.11
2018-07-08T11:58:31.532Z,35.22
2018-07-08T11:59:31.858Z,35.12
2018-07-08T12:00:31.581Z,35.26
2018-07-08T12:01:31.261Z,35.26
2018-07-08T12:02:32.578Z,34.95
2018-07-08T12:03:31.324Z,35.22
2018-07-08T12:04:31.350Z,35.00
2018-07-08T12:05:32.244Z,34.89
2018-07-08T12:06:32.314Z,34.73
2018-07-08T12:07:32.175Z,34.74
2018-07-08T12:08:32.540Z,34.86
2018-07-08T12:09:54.267Z,34.93
2018-07-08T12:10:53.294Z,34.77
2018-07-08T12:12:16.009Z,35.22
2018-07-08T12:13:15.849Z,35.33
2018-07-08T12:14:39.433Z,35.56
2018-07-08T12:15:39.508Z,35.42
2018-07-08T12:16:39.567Z,35.11
2018-07-08T12:17:39.616Z,35.14
2018-07-08T12:19:02.648Z,35.02
2018-07-08T12:20:01.700Z,35.12
2018-07-08T12:21:01.661Z,35.36
2018-07-08T12:22:01.814Z,35.46
2018-07-08T12:23:01.751Z,35.45
2018-07-08T12:24:01.624Z,34.73
2018-07-08T12:25:01.391Z,34.42
2018-07-08T12:26:22.845Z,34.05
2018-07-08T12:27:22.946Z,33.77
2018-07-08T12:29:06.246Z,33.74
2018-07-08T12:30:29.245Z,34.23
2018-07-08T12:31:51.893Z,33.86
2018-07-08T12:32:52.019Z,33.94
2018-07-08T12:33:51.920Z,34.10
2018-07-08T12:34:51.906Z,34.38
2018-07-08T12:35:52.903Z,34.55
2018-07-08T12:36:51.901Z,34.86
2018-07-08T12:37:52.069Z,35.24
2018-07-08T12:38:52.187Z,35.33
2018-07-08T12:39:52.270Z,35.34
2018-07-08T12:40:52.456Z,34.88
2018-07-08T12:41:52.418Z,34.66
2018-07-08T12:42:52.234Z,34.67
2018-07-08T12:44:14.871Z,34.01
2018-07-08T12:45:37.362Z,34.08
2018-07-08T12:46:37.651Z,34.25
2018-07-08T12:47:36.480Z,34.39
2018-07-08T12:48:58.436Z,34.52
2018-07-08T12:49:59.432Z,34.88
2018-07-08T12:50:59.116Z,35.05
2018-07-08T12:52:41.633Z,35.18
2018-07-08T12:54:03.413Z,35.51
2018-07-08T12:55:04.659Z,35.68
2018-07-08T12:56:05.240Z,35.51
2018-07-08T12:57:03.925Z,35.52
2018-07-08T12:58:03.909Z,35.80
2018-07-08T12:59:25.453Z,35.74
2018-07-08T13:00:26.397Z,35.71
2018-07-08T13:01:26.142Z,35.64
2018-07-08T13:02:25.986Z,35.39
2018-07-08T13:03:25.814Z,35.41
2018-07-08T13:04:25.399Z,34.85
2018-07-08T13:05:25.828Z,34.48
2018-07-08T13:06:25.636Z,34.23
2018-07-08T13:07:25.622Z,34.42
2018-07-08T13:08:25.217Z,34.66
2018-07-08T13:09:26.010Z,34.67
2018-07-08T13:10:25.678Z,34.86
2018-07-08T13:11:25.717Z,34.74
2018-07-08T13:12:25.578Z,34.99
2018-07-08T13:13:26.261Z,35.05
2018-07-08T13:14:25.963Z,35.36
2018-07-08T13:15:26.063Z,35.29
2018-07-08T13:16:25.869Z,35.31
2018-07-08T13:18:08.484Z,35.31
2018-07-08T13:19:10.258Z,35.07
2018-07-08T13:20:09.208Z,34.97
2018-07-08T13:21:08.733Z,34.83
2018-07-08T13:22:09.433Z,34.36
2018-07-08T13:23:09.294Z,33.96
2018-07-08T13:24:09.248Z,34.01
2018-07-08T13:25:09.383Z,34.21
2018-07-08T13:26:10.988Z,34.33
2018-07-08T13:27:52.078Z,34.24
2018-07-08T13:28:52.534Z,34.39
2018-07-08T13:29:57.523Z,34.60
2018-07-08T13:30:52.132Z,34.58
2018-07-08T13:31:53.259Z,34.54
2018-07-08T13:32:52.097Z,34.47
2018-07-08T13:33:51.897Z,34.36
2018-07-08T13:36:20.748Z,34.70
2018-07-08T13:37:21.289Z,34.50
2018-07-08T13:38:21.632Z,34.29
2018-07-08T13:39:20.553Z,34.06
2018-07-08T13:40:21.361Z,33.90
2018-07-08T13:41:21.504Z,33.59
2018-07-08T13:42:21.174Z,33.68
2018-07-08T13:43:21.115Z,33.84